Time;durP1;ratioP1;P1;durP2;ratioP2;P2;SDS_P1;SDS_P2;PMS_P1;PMS_P2;Temp;Humidity;BMP_temperature;BMP_pressure;BME280_temperature;BME280_humidity;BME280_pressure;Samples;Min_cycle;Max_cycle;Signal;HPM_P1;HPM_P2
2022/06/13 00:00:08;;;;;;;;;;;;;;;;;;2098126;28;20357;-45
2022/06/13 00:01:09;;;;;;;;;;;;;;;;;;2097915;28;19975;-47
2022/06/13 00:02:10;;;;;;;;;;;;;;;;;;2098191;28;19948;-44
2022/06/13 00:03:11;;;;;;;;;;;;;;;;;;2097821;28;19951;-45
2022/06/13 00:04:12;;;;;;;;;;;;;;;;;;2098041;28;20424;-45
2022/06/13 00:05:13;;;;;;;;;;;;;;;;;;2098093;28;19932;-45
2022/06/13 00:06:14;;;;;;;;;;;;;;;;;;2097905;28;20321;-44
2022/06/13 00:07:15;;;;;;;;;;;;;;;;;;2098342;28;19966;-45
2022/06/13 00:08:16;;;;;;;;;;;;;;;;;;2098111;28;19943;-42
2022/06/13 00:09:16;;;;;;;;;;;;;;;;;;2098040;28;19990;-45
2022/06/13 00:10:17;;;;;;;;;;;;;;;;;;2098026;28;19924;-42
2022/06/13 00:11:18;;;;;;;;;;;;;;;;;;2094108;28;19925;-42
2022/06/13 00:12:19;;;;;;;;;;;;;;;;;;2089733;28;20036;-46
2022/06/13 00:13:20;;;;;;;;;;;;;;;;;;2089735;28;20015;-44
2022/06/13 00:14:21;;;;;;;;;;;;;;;;;;2089696;28;19928;-44
2022/06/13 00:15:22;;;;;;;;;;;;;;;;;;2089516;28;20027;-45
2022/06/13 00:16:23;;;;;;;;;;;;;;;;;;2089638;28;20373;-45
2022/06/13 00:17:25;;;;;;;;;;;;;;;;;;2089769;28;19921;-46
2022/06/13 00:18:25;;;;;;;;;;;;;;;;;;2089754;28;19956;-46
2022/06/13 00:19:26;;;;;;;;;;;;;;;;;;2089826;28;19962;-46
2022/06/13 00:20:27;;;;;;;;;;;;;;;;;;2089975;28;20449;-44
2022/06/13 00:21:28;;;;;;;;;;;;;;;;;;2089515;28;19932;-45
2022/06/13 00:22:29;;;;;;;;;;;;;;;;;;2089799;28;19975;-44
2022/06/13 00:23:30;;;;;;;;;;;;;;;;;;2089560;28;19964;-41
2022/06/13 00:24:30;;;;;;;;;;;;;;;;;;2089645;28;20293;-44
2022/06/13 00:25:31;;;;;;;;;;;;;;;;;;2089877;28;19975;-44
2022/06/13 00:26:32;;;;;;;;;;;;;;;;;;2089667;28;20332;-44
2022/06/13 00:27:33;;;;;;;;;;;;;;;;;;2089512;28;20011;-46
2022/06/13 00:28:34;;;;;;;;;;;;;;;;;;2089635;28;19920;-46
2022/06/13 00:29:35;;;;;;;;;;;;;;;;;;2089783;28;20357;-46
2022/06/13 00:30:36;;;;;;;;;;;;;;;;;;2089785;28;19952;-46
2022/06/13 00:31:37;;;;;;;;;;;;;;;;;;2089512;28;19975;-46
2022/06/13 00:32:38;;;;;;;;;;;;;;;;;;2089603;28;19925;-46
2022/06/13 00:33:39;;;;;;;;;;;;;;;;;;2089601;28;19921;-46
2022/06/13 00:34:40;;;;;;;;;;;;;;;;;;2089725;28;19927;-46
2022/06/13 00:35:41;;;;;;;;;;;;;;;;;;2089523;28;19944;-46
2022/06/13 00:36:42;;;;;;;;;;;;;;;;;;2089406;28;20011;-47
2022/06/13 00:37:43;;;;;;;;;;;;;;;;;;2089755;28;20007;-44
2022/06/13 00:38:43;;;;;;;;;;;;;;;;;;2089762;28;19924;-44
2022/06/13 00:39:44;;;;;;;;;;;;;;;;;;2089700;28;19921;-43
2022/06/13 00:40:45;;;;;;;;;;;;;;;;;;2089542;28;20356;-44
2022/06/13 00:41:46;;;;;;;;;;;;;;;;;;2095582;28;19920;-44
2022/06/13 00:42:47;;;;;;;;;;;;;;;;;;2097810;28;19928;-44
2022/06/13 00:43:48;;;;;;;;;;;;;;;;;;2097627;28;19946;-44
2022/06/13 00:44:49;;;;;;;;;;;;;;;;;;2097810;28;19968;-44
2022/06/13 00:45:50;;;;;;;;;;;;;;;;;;2097692;28;19920;-44
2022/06/13 00:46:51;;;;;;;;;;;;;;;;;;2097823;28;19982;-44
2022/06/13 00:47:52;;;;;;;;;;;;;;;;;;2097756;28;19920;-43
2022/06/13 00:48:53;;;;;;;;;;;;;;;;;;2097717;28;19927;-43
2022/06/13 00:49:53;;;;;;;;;;;;;;;;;;2097802;28;20365;-43
2022/06/13 00:50:55;;;;;;;;;;;;;;;;;;2097732;28;19959;-43
2022/06/13 00:51:55;;;;;;;;;;;;;;;;;;2097873;28;20366;-44
2022/06/13 00:52:56;;;;;;;;;;;;;;;;;;2099313;28;19966;-44
2022/06/13 00:53:57;;;;;;;;;;;;;;;;;;2099605;28;19924;-43
2022/06/13 00:54:58;;;;;;;;;;;;;;;;;;2099187;28;19981;-43
2022/06/13 00:55:59;;;;;;;;;;;;;;;;;;2099296;28;19928;-43
2022/06/13 00:57:00;;;;;;;;;;;;;;;;;;2099307;28;20313;-43
2022/06/13 00:58:01;;;;;;;;;;;;;;;;;;2099126;28;19920;-43
2022/06/13 00:59:02;;;;;;;;;;;;;;;;;;2099218;28;19921;-44
2022/06/13 01:00:02;;;;;;;;;;;;;;;;;;2099306;28;19920;-44
2022/06/13 01:01:03;;;;;;;;;;;;;;;;;;2099064;28;19920;-43
2022/06/13 01:02:04;;;;;;;;;;;;;;;;;;2099237;28;20022;-43
2022/06/13 01:03:05;;;;;;;;;;;;;;;;;;2099125;28;19927;-43
2022/06/13 01:04:06;;;;;;;;;;;;;;;;;;2099174;28;20029;-43
2022/06/13 01:05:07;;;;;;;;;;;;;;;;;;2099332;28;20119;-44
2022/06/13 01:06:08;;;;;;;;;;;;;;;;;;2099063;28;20285;-43
2022/06/13 01:07:09;;;;;;;;;;;;;;;;;;2099124;28;19985;-44
2022/06/13 01:08:09;;;;;;;;;;;;;;;;;;2099273;28;20431;-44
2022/06/13 01:09:10;;;;;;;;;;;;;;;;;;2099174;28;19921;-43
2022/06/13 01:11:30;;;;;;;;;;;;;;;;;;2093562;28;20400;-44
2022/06/13 01:12:31;;;;;;;;;;;;;;;;;;2090780;28;20019;-44
2022/06/13 01:13:32;;;;;;;;;;;;;;;;;;2090891;28;19925;-44
2022/06/13 01:14:33;;;;;;;;;;;;;;;;;;2091050;28;20015;-46
2022/06/13 01:15:34;;;;;;;;;;;;;;;;;;2090781;28;19971;-45
2022/06/13 01:16:34;;;;;;;;;;;;;;;;;;2090693;28;19920;-46
2022/06/13 01:17:36;;;;;;;;;;;;;;;;;;2090799;28;20435;-45
2022/06/13 01:18:36;;;;;;;;;;;;;;;;;;2091147;28;20350;-43
2022/06/13 01:19:37;;;;;;;;;;;;;;;;;;2090965;28;19921;-44
2022/06/13 01:20:38;;;;;;;;;;;;;;;;;;2090774;28;19976;-43
2022/06/13 01:21:39;;;;;;;;;;;;;;;;;;2090749;28;19986;-43
2022/06/13 01:22:40;;;;;;;;;;;;;;;;;;2090909;28;20003;-44
2022/06/13 01:23:41;;;;;;;;;;;;;;;;;;2090723;28;19963;-43
2022/06/13 01:24:42;;;;;;;;;;;;;;;;;;2090922;28;19952;-43
2022/06/13 01:25:43;;;;;;;;;;;;;;;;;;2090737;28;19986;-43
2022/06/13 01:26:43;;;;;;;;;;;;;;;;;;2090730;28;20016;-43
2022/06/13 01:27:44;;;;;;;;;;;;;;;;;;2090860;28;20014;-43
2022/06/13 01:28:45;;;;;;;;;;;;;;;;;;2090829;28;20161;-43
2022/06/13 01:29:46;;;;;;;;;;;;;;;;;;2090952;28;19959;-45
2022/06/13 01:30:47;;;;;;;;;;;;;;;;;;2090678;28;20387;-46
2022/06/13 01:31:48;;;;;;;;;;;;;;;;;;2090652;28;19979;-46
2022/06/13 01:32:51;;;;;;;;;;;;;;;;;;2090700;28;19921;-45
2022/06/13 01:33:52;;;;;;;;;;;;;;;;;;2090871;28;19999;-46
2022/06/13 01:34:56;;;;;;;;;;;;;;;;;;2090580;28;20401;-45
2022/06/13 01:35:58;;;;;;;;;;;;;;;;;;2090717;28;20023;-43
2022/06/13 01:36:59;;;;;;;;;;;;;;;;;;2090875;28;20309;-44
2022/06/13 01:38:00;;;;;;;;;;;;;;;;;;2096745;28;20220;-43
2022/06/13 01:39:01;;;;;;;;;;;;;;;;;;2098977;28;19928;-43
2022/06/13 01:40:02;;;;;;;;;;;;;;;;;;2099396;28;19920;-43
2022/06/13 01:41:03;;;;;;;;;;;;;;;;;;2098855;28;19943;-44
2022/06/13 01:42:04;;;;;;;;;;;;;;;;;;2098939;28;19963;-43
2022/06/13 01:43:05;;;;;;;;;;;;;;;;;;2098880;28;19920;-44
2022/06/13 01:44:06;;;;;;;;;;;;;;;;;;2099032;28;19928;-46
2022/06/13 01:45:07;;;;;;;;;;;;;;;;;;2099098;28;19926;-46
2022/06/13 01:46:08;;;;;;;;;;;;;;;;;;2099018;28;19928;-44
2022/06/13 01:47:09;;;;;;;;;;;;;;;;;;2099036;28;20332;-44
2022/06/13 01:48:10;;;;;;;;;;;;;;;;;;2098911;28;19920;-44
2022/06/13 01:49:11;;;;;;;;;;;;;;;;;;2098879;28;20354;-43
2022/06/13 01:50:12;;;;;;;;;;;;;;;;;;2098977;28;19935;-43
2022/06/13 01:51:12;;;;;;;;;;;;;;;;;;2098773;28;19970;-44
2022/06/13 01:52:13;;;;;;;;;;;;;;;;;;2099167;28;20009;-43
2022/06/13 01:53:14;;;;;;;;;;;;;;;;;;2099118;28;20361;-43
2022/06/13 01:54:15;;;;;;;;;;;;;;;;;;2099256;28;20170;-44
2022/06/13 01:55:16;;;;;;;;;;;;;;;;;;2098989;28;20011;-43
2022/06/13 01:56:17;;;;;;;;;;;;;;;;;;2099279;28;19921;-44
2022/06/13 01:57:18;;;;;;;;;;;;;;;;;;2099128;28;20010;-46
2022/06/13 01:58:19;;;;;;;;;;;;;;;;;;2098801;28;19920;-45
2022/06/13 01:59:19;;;;;;;;;;;;;;;;;;2098977;28;19927;-46
2022/06/13 02:00:21;;;;;;;;;;;;;;;;;;2099200;28;19927;-43
2022/06/13 02:01:22;;;;;;;;;;;;;;;;;;2099218;28;20020;-46
2022/06/13 02:02:23;;;;;;;;;;;;;;;;;;2098804;28;20301;-46
2022/06/13 02:03:26;;;;;;;;;;;;;;;;;;2098626;28;19920;-45
2022/06/13 02:04:28;;;;;;;;;;;;;;;;;;2098898;28;20053;-43
2022/06/13 02:05:30;;;;;;;;;;;;;;;;;;2099029;28;20007;-46
2022/06/13 02:06:31;;;;;;;;;;;;;;;;;;2098678;28;20010;-46
2022/06/13 02:07:32;;;;;;;;;;;;;;;;;;2099011;28;20381;-43
2022/06/13 02:08:36;;;;;;;;;;;;;;;;;;2098903;28;20381;-44
2022/06/13 02:09:37;;;;;;;;;;;;;;;;;;2098755;28;19955;-44
2022/06/13 02:10:38;;;;;;;;;;;;;;;;;;2098933;28;19924;-43
2022/06/13 02:11:39;;;;;;;;;;;;;;;;;;2092254;28;20007;-46
2022/06/13 02:12:40;;;;;;;;;;;;;;;;;;2090725;28;20003;-43
2022/06/13 02:13:41;;;;;;;;;;;;;;;;;;2090479;28;19928;-44
2022/06/13 02:14:42;;;;;;;;;;;;;;;;;;2090536;28;19959;-43
2022/06/13 02:15:43;;;;;;;;;;;;;;;;;;2090387;28;20294;-43
2022/06/13 02:16:43;;;;;;;;;;;;;;;;;;2090478;28;19921;-44
2022/06/13 02:17:44;;;;;;;;;;;;;;;;;;2090324;28;20308;-43
2022/06/13 02:18:45;;;;;;;;;;;;;;;;;;2090528;28;19937;-43
2022/06/13 02:19:46;;;;;;;;;;;;;;;;;;2090514;28;20332;-43
2022/06/13 02:20:47;;;;;;;;;;;;;;;;;;2090493;28;19982;-43
2022/06/13 02:21:48;;;;;;;;;;;;;;;;;;2090923;28;19993;-46
2022/06/13 02:22:48;;;;;;;;;;;;;;;;;;2090392;28;19948;-47
2022/06/13 02:23:49;;;;;;;;;;;;;;;;;;2090465;28;20400;-43
2022/06/13 02:24:50;;;;;;;;;;;;;;;;;;2090661;28;19955;-43
2022/06/13 02:25:51;;;;;;;;;;;;;;;;;;2090442;28;19920;-43
2022/06/13 02:26:52;;;;;;;;;;;;;;;;;;2090516;28;19927;-43
2022/06/13 02:27:53;;;;;;;;;;;;;;;;;;2090383;28;19968;-43
2022/06/13 02:28:54;;;;;;;;;;;;;;;;;;2090786;28;20015;-45
2022/06/13 02:29:55;;;;;;;;;;;;;;;;;;2090342;28;19927;-43
2022/06/13 02:30:55;;;;;;;;;;;;;;;;;;2090870;28;20351;-43
2022/06/13 02:31:56;;;;;;;;;;;;;;;;;;2090329;28;19968;-43
2022/06/13 02:32:57;;;;;;;;;;;;;;;;;;2090243;28;19927;-44
2022/06/13 02:33:58;;;;;;;;;;;;;;;;;;2093952;28;19920;-44
2022/06/13 02:34:59;;;;;;;;;;;;;;;;;;2098631;28;19920;-43
2022/06/13 02:36:00;;;;;;;;;;;;;;;;;;2098428;28;20163;-43
2022/06/13 02:37:01;;;;;;;;;;;;;;;;;;2098740;28;19984;-44
2022/06/13 02:38:02;;;;;;;;;;;;;;;;;;2098578;28;20364;-43
2022/06/13 02:39:02;;;;;;;;;;;;;;;;;;2098673;28;19920;-44
2022/06/13 02:40:03;;;;;;;;;;;;;;;;;;2098892;28;19927;-43
2022/06/13 02:41:04;;;;;;;;;;;;;;;;;;2098545;28;20447;-44
2022/06/13 02:42:05;;;;;;;;;;;;;;;;;;2098516;28;19959;-43
2022/06/13 02:43:06;;;;;;;;;;;;;;;;;;2098531;28;19921;-43
2022/06/13 02:44:07;;;;;;;;;;;;;;;;;;2098649;28;20365;-43
2022/06/13 02:45:08;;;;;;;;;;;;;;;;;;2098542;28;19924;-43
2022/06/13 02:46:09;;;;;;;;;;;;;;;;;;2098626;28;19928;-43
2022/06/13 02:47:10;;;;;;;;;;;;;;;;;;2098634;28;20158;-43
2022/06/13 02:48:11;;;;;;;;;;;;;;;;;;2098792;28;20293;-46
2022/06/13 02:49:11;;;;;;;;;;;;;;;;;;2098827;28;20034;-45
2022/06/13 02:50:12;;;;;;;;;;;;;;;;;;2098490;28;19930;-46
2022/06/13 02:51:13;;;;;;;;;;;;;;;;;;2098551;28;19926;-46
2022/06/13 02:52:14;;;;;;;;;;;;;;;;;;2098503;28;20274;-45
2022/06/13 02:53:15;;;;;;;;;;;;;;;;;;2098607;28;20309;-45
2022/06/13 02:54:16;;;;;;;;;;;;;;;;;;2098459;28;20019;-46
2022/06/13 02:55:16;;;;;;;;;;;;;;;;;;2098468;28;19927;-47
2022/06/13 02:56:17;;;;;;;;;;;;;;;;;;2098418;28;19966;-47
2022/06/13 02:57:24;;;;;;;;;;;;;;;;;;2098634;28;20011;-46
2022/06/13 02:58:25;;;;;;;;;;;;;;;;;;2098568;28;20000;-46
2022/06/13 02:59:26;;;;;;;;;;;;;;;;;;2098612;28;20090;-46
2022/06/13 03:00:27;;;;;;;;;;;;;;;;;;2098415;28;19924;-46
2022/06/13 03:01:28;;;;;;;;;;;;;;;;;;2098539;28;19956;-46
2022/06/13 03:02:29;;;;;;;;;;;;;;;;;;2098620;28;20277;-43
2022/06/13 03:03:30;;;;;;;;;;;;;;;;;;2098247;28;19931;-44
2022/06/13 03:04:31;;;;;;;;;;;;;;;;;;2098592;28;20357;-43
2022/06/13 03:05:32;;;;;;;;;;;;;;;;;;2098459;28;19928;-43
2022/06/13 03:06:33;;;;;;;;;;;;;;;;;;2098378;28;19927;-43
2022/06/13 03:07:34;;;;;;;;;;;;;;;;;;2098355;28;20366;-44
2022/06/13 03:08:35;;;;;;;;;;;;;;;;;;2098659;28;19927;-44
2022/06/13 03:09:36;;;;;;;;;;;;;;;;;;2098305;28;19920;-44
2022/06/13 03:10:37;;;;;;;;;;;;;;;;;;2098733;28;19947;-46
2022/06/13 03:11:38;;;;;;;;;;;;;;;;;;2091924;28;19925;-46
2022/06/13 03:12:39;;;;;;;;;;;;;;;;;;2089892;28;19928;-45
2022/06/13 03:13:39;;;;;;;;;;;;;;;;;;2090245;28;20140;-46
2022/06/13 03:14:40;;;;;;;;;;;;;;;;;;2089469;28;20351;-46
2022/06/13 03:15:41;;;;;;;;;;;;;;;;;;2089860;28;19967;-46
2022/06/13 03:16:42;;;;;;;;;;;;;;;;;;2089951;28;20289;-46
2022/06/13 03:17:43;;;;;;;;;;;;;;;;;;2090394;28;20369;-44
2022/06/13 03:18:44;;;;;;;;;;;;;;;;;;2089948;28;19921;-44
2022/06/13 03:19:45;;;;;;;;;;;;;;;;;;2090050;28;20007;-43
2022/06/13 03:20:46;;;;;;;;;;;;;;;;;;2090065;28;19953;-43
2022/06/13 03:21:47;;;;;;;;;;;;;;;;;;2090088;28;20015;-44
2022/06/13 03:22:48;;;;;;;;;;;;;;;;;;2090041;28;20015;-44
2022/06/13 03:23:48;;;;;;;;;;;;;;;;;;2089921;28;19962;-43
2022/06/13 03:24:49;;;;;;;;;;;;;;;;;;2090067;28;19928;-43
2022/06/13 03:25:50;;;;;;;;;;;;;;;;;;2089901;28;19986;-43
2022/06/13 03:26:52;;;;;;;;;;;;;;;;;;2090343;28;19921;-46
2022/06/13 03:27:53;;;;;;;;;;;;;;;;;;2090106;28;20437;-44
2022/06/13 03:28:54;;;;;;;;;;;;;;;;;;2090039;28;20407;-43
2022/06/13 03:29:55;;;;;;;;;;;;;;;;;;2091081;28;19920;-43
2022/06/13 03:30:56;;;;;;;;;;;;;;;;;;2098106;28;19955;-44
2022/06/13 03:31:57;;;;;;;;;;;;;;;;;;2098327;28;19920;-44
2022/06/13 03:34:18;;;;;;;;;;;;;;;;;;2098291;28;20006;-43
2022/06/13 03:35:19;;;;;;;;;;;;;;;;;;2098353;28;19924;-43
2022/06/13 03:36:20;;;;;;;;;;;;;;;;;;2098249;28;20007;-43
2022/06/13 03:37:20;;;;;;;;;;;;;;;;;;2098245;28;20026;-43
2022/06/13 03:38:21;;;;;;;;;;;;;;;;;;2098346;28;19932;-43
2022/06/13 03:39:22;;;;;;;;;;;;;;;;;;2098230;28;19952;-44
2022/06/13 03:40:23;;;;;;;;;;;;;;;;;;2098491;28;19968;-44
2022/06/13 03:41:24;;;;;;;;;;;;;;;;;;2098253;28;19928;-43
2022/06/13 03:42:25;;;;;;;;;;;;;;;;;;2098318;28;19989;-44
2022/06/13 03:43:25;;;;;;;;;;;;;;;;;;2098083;28;20003;-44
2022/06/13 03:44:26;;;;;;;;;;;;;;;;;;2098556;28;20066;-43
2022/06/13 03:45:27;;;;;;;;;;;;;;;;;;2098320;28;19920;-44
2022/06/13 03:46:28;;;;;;;;;;;;;;;;;;2097914;28;20499;-43
2022/06/13 03:47:29;;;;;;;;;;;;;;;;;;2098445;28;20011;-46
2022/06/13 03:48:30;;;;;;;;;;;;;;;;;;2098099;28;19924;-46
2022/06/13 03:49:31;;;;;;;;;;;;;;;;;;2098121;28;19928;-46
2022/06/13 03:50:32;;;;;;;;;;;;;;;;;;2098151;28;19927;-46
2022/06/13 03:51:32;;;;;;;;;;;;;;;;;;2098394;28;20003;-46
2022/06/13 03:52:33;;;;;;;;;;;;;;;;;;2098211;28;20003;-44
2022/06/13 03:53:37;;;;;;;;;;;;;;;;;;2098269;28;19924;-44
2022/06/13 03:54:38;;;;;;;;;;;;;;;;;;2098093;28;20337;-44
2022/06/13 03:55:39;;;;;;;;;;;;;;;;;;2098221;28;20193;-43
2022/06/13 03:56:40;;;;;;;;;;;;;;;;;;2098009;28;20411;-44
2022/06/13 03:57:41;;;;;;;;;;;;;;;;;;2098263;28;20465;-46
2022/06/13 03:58:42;;;;;;;;;;;;;;;;;;2098253;28;19932;-46
2022/06/13 03:59:43;;;;;;;;;;;;;;;;;;2098223;28;19921;-47
2022/06/13 04:00:44;;;;;;;;;;;;;;;;;;2098396;28;19920;-44
2022/06/13 04:01:44;;;;;;;;;;;;;;;;;;2098238;28;20269;-43
2022/06/13 04:02:45;;;;;;;;;;;;;;;;;;2098066;28;19920;-43
2022/06/13 04:03:46;;;;;;;;;;;;;;;;;;2097996;28;19922;-44
2022/06/13 04:04:47;;;;;;;;;;;;;;;;;;2098047;28;19956;-44
2022/06/13 04:05:48;;;;;;;;;;;;;;;;;;2098060;28;19924;-44
2022/06/13 04:06:49;;;;;;;;;;;;;;;;;;2098025;28;19921;-43
2022/06/13 04:07:50;;;;;;;;;;;;;;;;;;2098186;28;20361;-46
2022/06/13 04:08:51;;;;;;;;;;;;;;;;;;2098196;28;19920;-46
2022/06/13 04:09:52;;;;;;;;;;;;;;;;;;2098215;28;20274;-43
2022/06/13 04:10:53;;;;;;;;;;;;;;;;;;2097812;28;20005;-44
2022/06/13 04:11:53;;;;;;;;;;;;;;;;;;2089874;28;19939;-45
2022/06/13 04:12:59;;;;;;;;;;;;;;;;;;2089705;28;20301;-44
2022/06/13 04:13:59;;;;;;;;;;;;;;;;;;2089702;28;19927;-44
2022/06/13 04:15:00;;;;;;;;;;;;;;;;;;2090096;28;19921;-45
2022/06/13 04:16:01;;;;;;;;;;;;;;;;;;2089912;28;19921;-46
2022/06/13 04:17:02;;;;;;;;;;;;;;;;;;2089735;28;19920;-43
2022/06/13 04:18:03;;;;;;;;;;;;;;;;;;2089835;28;20003;-43
2022/06/13 04:19:04;;;;;;;;;;;;;;;;;;2089876;28;20392;-44
2022/06/13 04:20:05;;;;;;;;;;;;;;;;;;2089578;28;20015;-44
2022/06/13 04:21:06;;;;;;;;;;;;;;;;;;2089592;28;20404;-44
2022/06/13 04:22:07;;;;;;;;;;;;;;;;;;2089618;28;19928;-44
2022/06/13 04:23:08;;;;;;;;;;;;;;;;;;2089712;28;19925;-44
2022/06/13 04:24:08;;;;;;;;;;;;;;;;;;2089785;28;19928;-43
2022/06/13 04:25:09;;;;;;;;;;;;;;;;;;2089806;28;19921;-44
2022/06/13 04:26:10;;;;;;;;;;;;;;;;;;2090622;28;19928;-44
2022/06/13 04:27:11;;;;;;;;;;;;;;;;;;2098005;28;19966;-46
2022/06/13 04:28:12;;;;;;;;;;;;;;;;;;2098165;28;19929;-47
2022/06/13 04:29:13;;;;;;;;;;;;;;;;;;2098075;28;19969;-44
2022/06/13 04:30:14;;;;;;;;;;;;;;;;;;2098318;28;20426;-46
2022/06/13 04:31:18;;;;;;;;;;;;;;;;;;2097824;28;20019;-47
2022/06/13 04:32:19;;;;;;;;;;;;;;;;;;2098104;28;19926;-45
2022/06/13 04:33:20;;;;;;;;;;;;;;;;;;2097900;28;19936;-44
2022/06/13 04:34:21;;;;;;;;;;;;;;;;;;2098426;28;19920;-45
2022/06/13 04:35:22;;;;;;;;;;;;;;;;;;2098068;28;19927;-46
2022/06/13 04:36:23;;;;;;;;;;;;;;;;;;2097787;28;19921;-46
2022/06/13 04:37:23;;;;;;;;;;;;;;;;;;2098103;28;19921;-44
2022/06/13 04:38:24;;;;;;;;;;;;;;;;;;2098737;28;20255;-46
2022/06/13 04:39:25;;;;;;;;;;;;;;;;;;2098178;28;19927;-44
2022/06/13 04:40:27;;;;;;;;;;;;;;;;;;2097976;28;19920;-46
2022/06/13 04:41:27;;;;;;;;;;;;;;;;;;2097682;28;19967;-46
2022/06/13 04:42:28;;;;;;;;;;;;;;;;;;2097977;28;20201;-46
2022/06/13 04:43:29;;;;;;;;;;;;;;;;;;2098260;28;20012;-46
2022/06/13 04:44:30;;;;;;;;;;;;;;;;;;2097744;28;19990;-47
2022/06/13 04:45:31;;;;;;;;;;;;;;;;;;2098085;28;19924;-44
2022/06/13 04:46:32;;;;;;;;;;;;;;;;;;2097766;28;19955;-43
2022/06/13 04:47:33;;;;;;;;;;;;;;;;;;2098256;28;19920;-46
2022/06/13 04:48:34;;;;;;;;;;;;;;;;;;2098309;28;19927;-47
2022/06/13 04:49:35;;;;;;;;;;;;;;;;;;2098149;28;20344;-47
2022/06/13 04:50:37;;;;;;;;;;;;;;;;;;2097918;28;19960;-48
2022/06/13 04:51:38;;;;;;;;;;;;;;;;;;2097863;28;20079;-44
2022/06/13 04:52:39;;;;;;;;;;;;;;;;;;2098085;28;19955;-45
2022/06/13 04:53:39;;;;;;;;;;;;;;;;;;2097614;28;19973;-44
2022/06/13 04:54:40;;;;;;;;;;;;;;;;;;2098199;28;20377;-46
2022/06/13 04:55:41;;;;;;;;;;;;;;;;;;2097705;28;20050;-44
2022/06/13 04:56:43;;;;;;;;;;;;;;;;;;2097780;28;19970;-44
2022/06/13 04:57:43;;;;;;;;;;;;;;;;;;2097918;28;19928;-45
2022/06/13 04:58:44;;;;;;;;;;;;;;;;;;2098060;28;20270;-44
2022/06/13 04:59:45;;;;;;;;;;;;;;;;;;2097956;28;20332;-44
2022/06/13 05:00:46;;;;;;;;;;;;;;;;;;2098248;28;20005;-48
2022/06/13 05:01:47;;;;;;;;;;;;;;;;;;2097870;28;19999;-45
2022/06/13 05:02:48;;;;;;;;;;;;;;;;;;2097937;28;20022;-46
2022/06/13 05:03:49;;;;;;;;;;;;;;;;;;2098036;28;19921;-46
2022/06/13 05:04:50;;;;;;;;;;;;;;;;;;2097938;28;19982;-44
2022/06/13 05:05:51;;;;;;;;;;;;;;;;;;2098361;28;19999;-46
2022/06/13 05:06:52;;;;;;;;;;;;;;;;;;2097950;28;19963;-44
2022/06/13 05:07:52;;;;;;;;;;;;;;;;;;2098089;28;20381;-45
2022/06/13 05:08:53;;;;;;;;;;;;;;;;;;2098086;28;20041;-44
2022/06/13 05:09:54;;;;;;;;;;;;;;;;;;2098014;28;20007;-46
2022/06/13 05:10:55;;;;;;;;;;;;;;;;;;2097520;28;19951;-42
2022/06/13 05:11:56;;;;;;;;;;;;;;;;;;2089300;28;20366;-46
2022/06/13 05:12:57;;;;;;;;;;;;;;;;;;2089709;28;19959;-45
2022/06/13 05:13:58;;;;;;;;;;;;;;;;;;2090021;28;20002;-44
2022/06/13 05:15:01;;;;;;;;;;;;;;;;;;2089440;28;20015;-43
2022/06/13 05:16:02;;;;;;;;;;;;;;;;;;2090256;28;20015;-47
2022/06/13 05:17:03;;;;;;;;;;;;;;;;;;2089711;28;20011;-43
2022/06/13 05:18:04;;;;;;;;;;;;;;;;;;2089243;28;20282;-44
2022/06/13 05:19:05;;;;;;;;;;;;;;;;;;2089346;28;19932;-43
2022/06/13 05:20:06;;;;;;;;;;;;;;;;;;2089601;28;19921;-43
2022/06/13 05:21:07;;;;;;;;;;;;;;;;;;2089375;28;20004;-43
2022/06/13 05:22:08;;;;;;;;;;;;;;;;;;2089635;28;19931;-46
2022/06/13 05:23:09;;;;;;;;;;;;;;;;;;2096379;28;19927;-46
2022/06/13 05:24:10;;;;;;;;;;;;;;;;;;2097775;28;20337;-46
2022/06/13 05:25:11;;;;;;;;;;;;;;;;;;2097517;28;20012;-47
2022/06/13 05:26:12;;;;;;;;;;;;;;;;;;2098163;28;19930;-47
2022/06/13 05:27:13;;;;;;;;;;;;;;;;;;2097956;28;20444;-47
2022/06/13 05:28:14;;;;;;;;;;;;;;;;;;2097589;28;19920;-45
2022/06/13 05:29:15;;;;;;;;;;;;;;;;;;2097807;28;20003;-45
2022/06/13 05:30:16;;;;;;;;;;;;;;;;;;2097929;28;19920;-46
2022/06/13 05:31:18;;;;;;;;;;;;;;;;;;2097704;28;20394;-45
2022/06/13 05:32:20;;;;;;;;;;;;;;;;;;2097935;28;19955;-44
2022/06/13 05:33:21;;;;;;;;;;;;;;;;;;2097894;28;20018;-45
2022/06/13 05:34:22;;;;;;;;;;;;;;;;;;2097546;28;19920;-44
2022/06/13 05:35:22;;;;;;;;;;;;;;;;;;2097592;28;19942;-43
2022/06/13 05:36:23;;;;;;;;;;;;;;;;;;2097662;28;20004;-43
2022/06/13 05:37:24;;;;;;;;;;;;;;;;;;2097711;28;20374;-44
2022/06/13 05:38:25;;;;;;;;;;;;;;;;;;2098431;28;20015;-43
2022/06/13 05:39:26;;;;;;;;;;;;;;;;;;2099171;28;20015;-45
2022/06/13 05:40:28;;;;;;;;;;;;;;;;;;2098961;28;20284;-44
2022/06/13 05:41:29;;;;;;;;;;;;;;;;;;2099057;28;20023;-45
2022/06/13 05:42:30;;;;;;;;;;;;;;;;;;2099676;28;20010;-42
2022/06/13 05:43:31;;;;;;;;;;;;;;;;;;2099243;28;19971;-45
2022/06/13 05:44:32;;;;;;;;;;;;;;;;;;2099322;28;19928;-45
2022/06/13 05:45:32;;;;;;;;;;;;;;;;;;2099064;28;19920;-43
2022/06/13 05:46:33;;;;;;;;;;;;;;;;;;2099057;28;19920;-42
2022/06/13 05:47:34;;;;;;;;;;;;;;;;;;2098987;28;19969;-42
2022/06/13 05:48:35;;;;;;;;;;;;;;;;;;2099355;28;20005;-45
2022/06/13 05:49:36;;;;;;;;;;;;;;;;;;2099023;28;20017;-48
2022/06/13 05:50:37;;;;;;;;;;;;;;;;;;2098964;28;20368;-45
2022/06/13 05:51:38;;;;;;;;;;;;;;;;;;2098838;28;20023;-45
2022/06/13 05:52:39;;;;;;;;;;;;;;;;;;2098922;28;20382;-45
2022/06/13 05:53:40;;;;;;;;;;;;;;;;;;2098999;28;19920;-46
2022/06/13 05:54:41;;;;;;;;;;;;;;;;;;2099197;28;19921;-43
2022/06/13 05:55:42;;;;;;;;;;;;;;;;;;2099427;28;20011;-42
2022/06/13 05:56:43;;;;;;;;;;;;;;;;;;2098850;28;19955;-43
2022/06/13 05:57:43;;;;;;;;;;;;;;;;;;2098818;28;20406;-45
2022/06/13 05:58:44;;;;;;;;;;;;;;;;;;2099105;28;19927;-46
2022/06/13 05:59:45;;;;;;;;;;;;;;;;;;2099143;28;19969;-44
2022/06/13 06:00:46;;;;;;;;;;;;;;;;;;2098754;28;19988;-45
2022/06/13 06:01:47;;;;;;;;;;;;;;;;;;2099247;28;19999;-45
2022/06/13 06:02:48;;;;;;;;;;;;;;;;;;2099245;28;20514;-43
2022/06/13 06:03:49;;;;;;;;;;;;;;;;;;2098937;28;19960;-43
2022/06/13 06:04:50;;;;;;;;;;;;;;;;;;2098717;28;20011;-43
2022/06/13 06:05:55;;;;;;;;;;;;;;;;;;2098797;28;20389;-44
2022/06/13 06:06:56;;;;;;;;;;;;;;;;;;2099044;28;19991;-42
2022/06/13 06:07:57;;;;;;;;;;;;;;;;;;2098800;28;19921;-43
2022/06/13 06:08:58;;;;;;;;;;;;;;;;;;2099342;28;19928;-47
2022/06/13 06:09:59;;;;;;;;;;;;;;;;;;2098713;28;20369;-46
2022/06/13 06:11:00;;;;;;;;;;;;;;;;;;2097685;28;19956;-43
2022/06/13 06:12:01;;;;;;;;;;;;;;;;;;2090604;28;20053;-43
2022/06/13 06:13:02;;;;;;;;;;;;;;;;;;2091305;28;20070;-46
2022/06/13 06:14:03;;;;;;;;;;;;;;;;;;2090976;28;19971;-44
2022/06/13 06:15:04;;;;;;;;;;;;;;;;;;2090810;28;20050;-46
2022/06/13 06:16:05;;;;;;;;;;;;;;;;;;2090683;28;19929;-45
2022/06/13 06:17:05;;;;;;;;;;;;;;;;;;2090832;28;19962;-44
2022/06/13 06:18:06;;;;;;;;;;;;;;;;;;2090594;28;19970;-44
2022/06/13 06:19:07;;;;;;;;;;;;;;;;;;2095118;28;19927;-43
2022/06/13 06:20:08;;;;;;;;;;;;;;;;;;2098782;28;19931;-43
2022/06/13 06:21:09;;;;;;;;;;;;;;;;;;2098589;28;20340;-43
2022/06/13 06:22:10;;;;;;;;;;;;;;;;;;2098821;28;19963;-43
2022/06/13 06:23:12;;;;;;;;;;;;;;;;;;2098868;28;20050;-46
2022/06/13 06:24:13;;;;;;;;;;;;;;;;;;2099170;28;20011;-47
2022/06/13 06:25:14;;;;;;;;;;;;;;;;;;2098884;28;20011;-45
2022/06/13 06:26:15;;;;;;;;;;;;;;;;;;2098838;28;20353;-46
2022/06/13 06:27:16;;;;;;;;;;;;;;;;;;2099063;28;19970;-44
2022/06/13 06:28:17;;;;;;;;;;;;;;;;;;2098855;28;19951;-45
2022/06/13 06:29:18;;;;;;;;;;;;;;;;;;2099319;28;20056;-45
2022/06/13 06:30:18;;;;;;;;;;;;;;;;;;2099619;28;19935;-43
2022/06/13 06:31:21;;;;;;;;;;;;;;;;;;2098959;28;19927;-43
2022/06/13 06:32:22;;;;;;;;;;;;;;;;;;2098774;28;20198;-43
2022/06/13 06:33:23;;;;;;;;;;;;;;;;;;2099211;28;20266;-45
2022/06/13 06:34:24;;;;;;;;;;;;;;;;;;2098778;28;19982;-45
2022/06/13 06:35:24;;;;;;;;;;;;;;;;;;2098800;28;19960;-45
2022/06/13 06:36:25;;;;;;;;;;;;;;;;;;2099148;28;19920;-45
2022/06/13 06:37:26;;;;;;;;;;;;;;;;;;2098752;28;19967;-43
2022/06/13 06:38:27;;;;;;;;;;;;;;;;;;2099349;28;19952;-45
2022/06/13 06:39:28;;;;;;;;;;;;;;;;;;2098890;28;20204;-45
2022/06/13 06:40:29;;;;;;;;;;;;;;;;;;2098737;28;20284;-47
2022/06/13 06:41:30;;;;;;;;;;;;;;;;;;2098895;28;19927;-46
2022/06/13 06:42:31;;;;;;;;;;;;;;;;;;2099126;28;19986;-43
2022/06/13 06:43:52;;;;;;;;;;;;;;;;;;2099183;28;19971;-46
2022/06/13 06:44:53;;;;;;;;;;;;;;;;;;2098812;28;19927;-46
2022/06/13 06:45:54;;;;;;;;;;;;;;;;;;2098789;28;19964;-43
2022/06/13 06:46:55;;;;;;;;;;;;;;;;;;2099928;28;20117;-44
2022/06/13 06:47:56;;;;;;;;;;;;;;;;;;2098893;28;20259;-46
2022/06/13 06:48:57;;;;;;;;;;;;;;;;;;2098646;28;20013;-43
2022/06/13 06:49:58;;;;;;;;;;;;;;;;;;2097437;28;20356;-44
2022/06/13 06:50:59;;;;;;;;;;;;;;;;;;2098698;28;19924;-42
2022/06/13 06:51:59;;;;;;;;;;;;;;;;;;2098607;28;19924;-43
2022/06/13 06:53:00;;;;;;;;;;;;;;;;;;2099056;28;19920;-47
2022/06/13 07:00:38;;;;;;;;;;;;;;;;;;2098580;28;20381;-46
2022/06/13 07:01:39;;;;;;;;;;;;;;;;;;2098361;28;19928;-45
2022/06/13 07:02:40;;;;;;;;;;;;;;;;;;2098839;28;20389;-44
2022/06/13 07:03:42;;;;;;;;;;;;;;;;;;2098734;28;20069;-45
2022/06/13 07:04:43;;;;;;;;;;;;;;;;;;2098923;28;20011;-42
2022/06/13 07:05:46;;;;;;;;;;;;;;;;;;2098959;28;20022;-43